Time;durP1;ratioP1;P1;durP2;ratioP2;P2;SDS_P1;SDS_P2;PMS_P1;PMS_P2;Temp;Humidity;BMP_temperature;BMP_pressure;BME280_temperature;BME280_humidity;BME280_pressure;Samples;Min_cycle;Max_cycle;Signal;HPM_P1;HPM_P2
2021/09/01 00:01:52;;;;;;;13.83;7.92;;;;;;;12.92;84.17;100362.22;2119925;82;21096;-90
2021/09/01 00:04:54;;;;;;;11.35;7.90;;;;;;;12.90;84.17;100354.89;2115852;82;21471;-86
2021/09/01 00:07:55;;;;;;;10.38;7.42;;;;;;;12.87;84.19;100361.09;2115649;82;21042;-88
2021/09/01 00:10:56;;;;;;;13.40;7.40;;;;;;;12.86;84.21;100369.55;2124312;82;21044;-88
2021/09/01 00:13:57;;;;;;;12.40;8.60;;;;;;;12.84;84.20;100358.27;2134943;82;21008;-89
2021/09/01 00:17:00;;;;;;;12.58;7.45;;;;;;;12.83;84.23;100362.42;2137173;81;21068;-88
2021/09/01 00:20:05;;;;;;;12.18;8.03;;;;;;;12.81;84.22;100367.94;2121268;81;21047;-88
2021/09/01 00:23:06;;;;;;;14.15;7.95;;;;;;;12.77;84.22;100367.95;2119892;82;21506;-89
2021/09/01 00:26:07;;;;;;;14.93;8.20;;;;;;;12.75;84.25;100374.80;2139335;81;21012;-90
2021/09/01 00:29:09;;;;;;;13.03;7.78;;;;;;;12.73;84.33;100374.64;2142011;82;21053;-89
2021/09/01 00:32:10;;;;;;;13.15;8.23;;;;;;;12.72;84.38;100372.95;2134819;81;21590;-91
2021/09/01 00:35:12;;;;;;;13.15;7.45;;;;;;;12.72;84.40;100390.27;2141123;81;21081;-87
2021/09/01 00:38:13;;;;;;;12.50;7.72;;;;;;;12.70;84.41;100391.78;2133656;81;21010;-87
2021/09/01 00:41:26;;;;;;;13.22;7.60;;;;;;;12.69;84.46;100399.94;2120260;81;21050;-88
2021/09/01 00:44:27;;;;;;;10.53;7.58;;;;;;;12.68;84.46;100396.95;2090858;84;21065;-88
2021/09/01 00:47:29;;;;;;;12.78;7.53;;;;;;;12.65;84.45;100403.96;2103819;83;21057;-89
2021/09/01 00:50:30;;;;;;;13.05;8.20;;;;;;;12.64;84.52;100407.13;2123830;81;21046;-89
2021/09/01 00:53:34;;;;;;;10.65;7.97;;;;;;;12.63;84.53;100407.28;2145227;81;21064;-89
2021/09/01 00:56:35;;;;;;;11.95;7.47;;;;;;;12.61;84.57;100403.45;2150066;81;20988;-88
2021/09/01 00:59:41;;;;;;;13.90;7.58;;;;;;;12.59;84.61;100407.31;2103998;83;21054;-90
2021/09/01 01:02:42;;;;;;;12.18;7.87;;;;;;;12.54;84.66;100413.97;2090076;82;21044;-89
2021/09/01 01:05:44;;;;;;;12.30;7.95;;;;;;;12.53;84.71;100414.98;2149505;81;21509;-89
2021/09/01 01:08:55;;;;;;;11.85;8.13;;;;;;;12.51;84.78;100427.63;2141509;80;21014;-88
2021/09/01 01:12:11;;;;;;;13.32;8.20;;;;;;;12.48;84.79;100422.65;2145514;81;21034;-91
2021/09/01 01:15:12;;;;;;;16.48;8.15;;;;;;;12.48;84.80;100427.97;2152562;81;21487;-88
2021/09/01 01:18:13;;;;;;;11.83;8.30;;;;;;;12.47;84.91;100433.45;2143316;80;21042;-89
2021/09/01 01:21:22;;;;;;;11.15;7.37;;;;;;;12.47;84.90;100437.45;2161981;81;21053;-90
2021/09/01 01:24:26;;;;;;;12.70;7.17;;;;;;;12.47;85.09;100439.63;2152137;81;20987;-89
2021/09/01 01:27:36;;;;;;;14.10;8.23;;;;;;;12.46;84.99;100449.92;2145197;81;21493;-87
2021/09/01 01:30:39;;;;;;;13.03;8.08;;;;;;;12.45;85.10;100444.28;2151957;81;20984;-89
2021/09/01 01:33:40;;;;;;;19.17;8.40;;;;;;;12.45;85.11;100457.59;2145252;81;21000;-88
2021/09/01 01:36:41;;;;;;;11.38;7.53;;;;;;;12.43;85.20;100452.93;2154149;81;21029;-88
2021/09/01 01:39:42;;;;;;;12.43;8.88;;;;;;;12.43;85.22;100457.43;2156307;81;21059;-87
2021/09/01 01:42:44;;;;;;;11.93;8.20;;;;;;;12.43;85.22;100457.43;2180072;80;21059;-89
2021/09/01 01:45:47;;;;;;;14.28;8.83;;;;;;;12.42;85.27;100453.94;2144010;80;21064;-90
2021/09/01 01:48:49;;;;;;;13.40;8.60;;;;;;;12.42;85.44;100459.27;2186178;79;21041;-89
2021/09/01 01:51:51;;;;;;;14.85;8.25;;;;;;;12.42;85.38;100464.59;2170263;80;21077;-89
2021/09/01 01:54:52;;;;;;;12.93;7.95;;;;;;;12.43;85.52;100462.75;2186436;79;21038;-89
2021/09/01 01:57:53;;;;;;;11.73;8.43;;;;;;;12.43;85.44;100459.59;2177469;80;21038;-88
2021/09/01 02:00:54;;;;;;;16.05;8.00;;;;;;;12.42;85.44;100460.59;2143199;80;20934;-89
2021/09/01 02:03:56;;;;;;;11.63;7.25;;;;;;;12.41;85.50;100454.92;2169116;80;21020;-88
2021/09/01 02:06:57;;;;;;;12.95;8.35;;;;;;;12.41;85.53;100450.93;2176364;79;21451;-89
2021/09/01 02:09:58;;;;;;;11.22;7.83;;;;;;;12.41;85.62;100465.57;2186775;80;21034;-88
2021/09/01 02:13:00;;;;;;;13.70;8.45;;;;;;;12.41;85.65;100464.74;2185697;79;21450;-89
2021/09/01 02:16:01;;;;;;;12.43;8.05;;;;;;;12.41;85.75;100475.39;2188380;79;20998;-90
2021/09/01 02:19:02;;;;;;;12.93;7.35;;;;;;;12.41;85.69;100473.55;2188995;79;21022;-90
2021/09/01 02:22:04;;;;;;;15.88;8.05;;;;;;;12.42;85.82;100479.73;2158502;80;21028;-89
2021/09/01 02:25:06;;;;;;;13.35;8.20;;;;;;;12.41;85.71;100477.55;2166414;80;21034;-88
2021/09/01 02:28:07;;;;;;;14.63;7.62;;;;;;;12.42;85.72;100477.07;2167873;80;21045;-90
2021/09/01 02:31:08;;;;;;;13.00;7.97;;;;;;;12.41;85.79;100481.53;2166853;80;21040;-88
2021/09/01 02:34:10;;;;;;;12.55;7.85;;;;;;;12.39;85.85;100480.90;2188838;80;21656;-89
2021/09/01 02:37:11;;;;;;;13.10;7.90;;;;;;;12.39;85.79;100486.70;2178033;79;21466;-86
2021/09/01 02:40:12;;;;;;;12.10;8.23;;;;;;;12.39;85.91;100492.02;2178042;79;21447;-88
2021/09/01 02:43:13;;;;;;;14.47;8.03;;;;;;;12.36;85.87;100486.56;2175840;80;21002;-89
2021/09/01 02:46:14;;;;;;;16.73;8.70;;;;;;;12.36;85.92;100491.03;2159168;80;20992;-89
2021/09/01 02:49:15;;;;;;;13.30;7.70;;;;;;;12.33;85.87;100485.06;2153843;80;21674;-88
2021/09/01 02:52:16;;;;;;;14.85;7.78;;;;;;;12.34;85.89;100488.55;2151727;80;21579;-88
2021/09/01 02:55:17;;;;;;;16.32;8.65;;;;;;;12.32;85.90;100493.20;2136680;80;21335;-88
2021/09/01 02:58:18;;;;;;;13.90;6.95;;;;;;;12.30;85.94;100499.19;2162090;80;21453;-87
2021/09/01 03:01:20;;;;;;;10.28;7.72;;;;;;;12.30;85.95;100493.86;2164066;80;21441;-88
2021/09/01 03:04:21;;;;;;;12.63;7.80;;;;;;;12.29;86.09;100497.53;2165552;80;21038;-89
2021/09/01 03:07:22;;;;;;;15.78;8.18;;;;;;;12.28;86.01;100497.22;2162097;80;21284;-88
2021/09/01 03:10:23;;;;;;;12.88;7.95;;;;;;;12.28;86.01;100497.22;2164953;79;21016;-87
2021/09/01 03:13:24;;;;;;;13.98;7.87;;;;;;;12.26;86.01;100496.55;2182782;79;21074;-88
2021/09/01 03:16:26;;;;;;;10.32;7.30;;;;;;;12.24;86.05;100500.69;2181278;80;21011;-89
2021/09/01 03:19:27;;;;;;;14.50;7.95;;;;;;;12.25;86.14;100509.02;2133352;80;20985;-89
2021/09/01 03:22:28;;;;;;;13.40;7.85;;;;;;;12.23;86.15;100510.19;2144253;81;21022;-90
2021/09/01 03:25:29;;;;;;;12.85;7.78;;;;;;;12.21;86.10;100512.17;2151006;79;20971;-89
2021/09/01 03:28:30;;;;;;;12.40;7.25;;;;;;;12.19;86.10;100516.83;2158326;80;21500;-88
2021/09/01 03:31:31;;;;;;;15.72;7.97;;;;;;;12.17;86.16;100516.19;2163196;80;21448;-89
2021/09/01 03:34:32;;;;;;;14.90;7.75;;;;;;;12.16;86.16;100530.46;2160646;80;21004;-88
2021/09/01 03:37:33;;;;;;;13.30;7.60;;;;;;;12.14;86.19;100523.17;2169551;80;21041;-88
2021/09/01 03:40:34;;;;;;;12.60;7.58;;;;;;;12.11;86.18;100520.34;2158927;80;21494;-90
2021/09/01 03:43:35;;;;;;;9.95;6.72;;;;;;;12.09;86.17;100529.80;2156748;81;20995;-88
2021/09/01 03:46:36;;;;;;;15.50;7.35;;;;;;;12.07;86.21;100534.95;2154347;80;21067;-90
2021/09/01 03:49:38;;;;;;;10.08;7.55;;;;;;;12.07;86.23;100533.62;2149931;81;20985;-89
2021/09/01 03:52:39;;;;;;;10.75;7.45;;;;;;;12.06;86.22;100530.14;2150403;80;21047;-88
2021/09/01 03:55:40;;;;;;;11.10;7.17;;;;;;;12.05;86.23;100532.95;2156302;80;20984;-89
2021/09/01 03:58:41;;;;;;;10.45;7.40;;;;;;;12.02;86.28;100536.80;2146913;80;21015;-88
2021/09/01 04:01:42;;;;;;;18.65;7.78;;;;;;;12.00;86.28;100540.12;2154502;80;21103;-89
2021/09/01 04:04:43;;;;;;;10.60;7.75;;;;;;;11.97;86.24;100548.43;2150643;81;20943;-90
2021/09/01 04:07:44;;;;;;;14.33;8.15;;;;;;;11.96;86.36;100543.27;2177973;79;21025;-88
2021/09/01 04:10:45;;;;;;;11.20;7.00;;;;;;;11.93;86.36;100538.27;2192961;79;21540;-88
2021/09/01 04:13:46;;;;;;;10.80;7.33;;;;;;;11.93;86.39;100545.75;2182794;80;20994;-89
2021/09/01 04:16:48;;;;;;;14.60;8.25;;;;;;;11.91;86.44;100542.45;2156193;80;20948;-88
2021/09/01 04:19:49;;;;;;;13.58;8.20;;;;;;;11.89;86.52;100549.75;2146506;80;21028;-89
2021/09/01 04:22:50;;;;;;;14.45;8.13;;;;;;;11.89;86.66;100543.10;2174161;79;20983;-90
2021/09/01 04:25:51;;;;;;;15.55;9.03;;;;;;;11.86;86.68;100552.23;2176398;81;20995;-90
2021/09/01 04:28:52;;;;;;;14.07;9.43;;;;;;;11.85;86.72;100554.58;2149313;80;20990;-90
2021/09/01 04:31:53;;;;;;;16.45;8.55;;;;;;;11.86;86.73;100563.38;2171452;80;21067;-89
2021/09/01 04:34:54;;;;;;;13.58;8.85;;;;;;;11.84;86.84;100561.34;2165723;80;21022;-90
2021/09/01 04:37:56;;;;;;;14.35;8.88;;;;;;;11.85;86.91;100569.64;2165756;80;21039;-90
2021/09/01 04:40:57;;;;;;;16.42;9.63;;;;;;;11.85;87.03;100565.65;2159336;80;21100;-91
2021/09/01 04:43:58;;;;;;;14.93;9.53;;;;;;;11.83;86.98;100569.81;2186762;80;21121;-92
2021/09/01 04:46:59;;;;;;;14.55;9.10;;;;;;;11.84;87.05;100573.30;2200424;79;21010;-90
2021/09/01 04:50:00;;;;;;;19.85;10.53;;;;;;;11.82;87.11;100576.11;2187302;79;20967;-91
2021/09/01 04:53:02;;;;;;;15.65;9.65;;;;;;;11.82;87.18;100579.27;2192121;79;20958;-88
2021/09/01 04:56:03;;;;;;;13.35;9.38;;;;;;;11.82;87.25;100577.44;2180633;79;21022;-90
2021/09/01 04:59:05;;;;;;;16.97;10.03;;;;;;;11.83;87.30;100572.48;2177049;80;21042;-90
2021/09/01 05:02:06;;;;;;;15.95;9.55;;;;;;;11.84;87.31;100582.61;2161674;79;21016;-87
2021/09/01 05:05:08;;;;;;;18.37;10.13;;;;;;;11.86;87.50;100570.02;2184439;79;20983;-88
2021/09/01 05:08:09;;;;;;;12.73;9.38;;;;;;;11.87;87.50;100576.99;2135988;81;21012;-88
2021/09/01 05:11:11;;;;;;;14.98;10.30;;;;;;;11.90;87.46;100577.99;2110613;83;20983;-87
2021/09/01 05:14:12;;;;;;;13.48;9.58;;;;;;;11.94;87.40;100578.02;2116491;81;21015;-88
2021/09/01 05:17:13;;;;;;;14.53;9.68;;;;;;;11.96;87.50;100576.50;2112500;83;21024;-89
2021/09/01 05:20:16;;;;;;;12.43;9.48;;;;;;;11.97;87.57;100585.66;2112195;83;21026;-92
2021/09/01 05:23:17;;;;;;;13.08;9.43;;;;;;;12.01;87.55;100596.29;2158619;81;21098;-91
2021/09/01 05:26:22;;;;;;;12.20;8.73;;;;;;;12.04;87.54;100589.31;2157145;78;21005;-91
2021/09/01 05:29:26;;;;;;;14.03;9.25;;;;;;;12.08;87.49;100598.64;2183741;80;21023;-90
2021/09/01 05:32:29;;;;;;;17.75;9.93;;;;;;;12.13;87.44;100586.66;2187639;79;21492;-88
2021/09/01 05:35:31;;;;;;;13.18;9.70;;;;;;;12.17;87.37;100588.84;2182565;79;21967;-88
2021/09/01 05:38:34;;;;;;;15.58;9.65;;;;;;;12.26;87.46;100592.33;2183305;79;20991;-88
2021/09/01 05:41:35;;;;;;;14.10;8.60;;;;;;;12.34;87.33;100592.33;2183813;79;21042;-88
2021/09/01 05:44:39;;;;;;;12.40;8.53;;;;;;;12.44;87.28;100604.13;2159055;80;21050;-89
2021/09/01 05:47:43;;;;;;;21.30;9.35;;;;;;;12.50;87.15;100607.44;2152079;79;21002;-89
2021/09/01 05:50:48;;;;;;;18.85;9.15;;;;;;;12.53;87.00;100615.95;2157441;80;21555;-89
2021/09/01 05:53:49;;;;;;;11.55;9.33;;;;;;;12.59;86.97;100622.94;2158118;80;21005;-90
2021/09/01 05:56:53;;;;;;;18.23;8.55;;;;;;;12.58;86.72;100623.41;2160384;80;21507;-89
2021/09/01 06:00:06;;;;;;;13.83;8.30;;;;;;;12.60;86.64;100615.27;2152368;80;20999;-90
2021/09/01 06:03:15;;;;;;;13.38;9.23;;;;;;;12.69;86.75;100615.58;2158525;80;21304;-90
2021/09/01 06:06:19;;;;;;;12.98;9.05;;;;;;;12.79;86.77;100613.08;2148275;80;21042;-90
2021/09/01 06:09:21;;;;;;;14.50;8.85;;;;;;;12.77;86.27;100624.39;2151789;80;22086;-88
2021/09/01 06:12:26;;;;;;;13.65;8.90;;;;;;;12.72;86.16;100636.04;2158967;81;21034;-88
2021/09/01 06:15:27;;;;;;;12.88;9.50;;;;;;;12.67;86.02;100641.06;2160017;80;21002;-87
2021/09/01 06:18:28;;;;;;;12.88;8.90;;;;;;;12.63;86.09;100638.89;2153337;81;21517;-89
2021/09/01 06:21:29;;;;;;;13.68;9.35;;;;;;;12.60;86.03;100633.91;2153168;80;21017;-89
2021/09/01 06:24:33;;;;;;;14.87;9.85;;;;;;;12.58;86.09;100637.23;2159437;80;21006;-89
2021/09/01 06:27:35;;;;;;;14.13;9.30;;;;;;;12.54;86.08;100640.22;2144617;80;21003;-87
2021/09/01 06:30:36;;;;;;;12.35;9.45;;;;;;;12.59;86.24;100645.56;2147105;80;21033;-90
2021/09/01 06:33:37;;;;;;;9.90;8.20;;;;;;;12.61;86.07;100650.20;2157995;80;20939;-89
2021/09/01 06:36:38;;;;;;;19.42;9.15;;;;;;;12.60;86.00;100644.55;2155561;81;21026;-87
2021/09/01 06:39:41;;;;;;;14.45;10.20;;;;;;;12.61;86.01;100645.70;2160737;80;20939;-88
2021/09/01 06:42:43;;;;;;;13.32;9.30;;;;;;;12.70;86.07;100658.03;2160047;80;21026;-88
2021/09/01 06:45:46;;;;;;;15.53;9.20;;;;;;;12.78;86.04;100653.17;2181574;79;21026;-88
2021/09/01 06:48:47;;;;;;;13.98;9.28;;;;;;;12.89;86.04;100646.68;2174418;79;21036;-89
2021/09/01 06:51:48;;;;;;;15.32;8.60;;;;;;;13.02;85.68;100643.00;2162546;80;21067;-89
2021/09/01 06:54:49;;;;;;;13.90;9.10;;;;;;;13.16;85.71;100653.46;2165836;80;21036;-88
2021/09/01 06:57:50;;;;;;;12.35;7.90;;;;;;;13.24;85.30;100656.93;2165603;80;21556;-88
2021/09/01 07:00:51;;;;;;;11.70;7.60;;;;;;;13.33;84.90;100663.09;2145217;81;21016;-87
2021/09/01 07:03:54;;;;;;;13.22;7.83;;;;;;;13.39;84.86;100662.41;2170707;79;21104;-87
2021/09/01 07:06:55;;;;;;;13.48;7.92;;;;;;;13.44;84.50;100664.06;2160612;80;21474;-89
2021/09/01 07:09:56;;;;;;;14.63;7.83;;;;;;;13.49;84.14;100662.70;2152254;81;21430;-88
2021/09/01 07:12:57;;;;;;;12.93;7.42;;;;;;;13.55;84.43;100678.86;2144051;80;21006;-88
2021/09/01 07:15:58;;;;;;;13.25;7.60;;;;;;;13.60;83.60;100673.84;2149016;81;20993;-88
2021/09/01 07:18:59;;;;;;;10.05;7.83;;;;;;;13.73;84.23;100681.78;2148473;80;21052;-88
2021/09/01 07:22:01;;;;;;;10.75;6.55;;;;;;;13.88;83.46;100672.02;2149487;81;21562;-88
2021/09/01 07:25:04;;;;;;;9.30;7.45;;;;;;;13.95;82.97;100684.18;2174494;80;20967;-87
2021/09/01 07:28:06;;;;;;;11.12;7.62;;;;;;;14.12;83.11;100676.41;2180306;79;20990;-88
2021/09/01 07:31:09;;;;;;;12.47;7.55;;;;;;;14.36;83.04;100671.42;2160972;80;21025;-88
2021/09/01 07:34:10;;;;;;;13.03;7.17;;;;;;;14.50;82.71;100667.97;2162125;81;21067;-88
2021/09/01 07:37:11;;;;;;;11.15;7.22;;;;;;;14.70;82.63;100672.34;2149910;80;21474;-88
2021/09/01 07:40:15;;;;;;;15.50;7.55;;;;;;;14.83;81.54;100675.72;2154939;80;21025;-89
2021/09/01 07:43:17;;;;;;;12.45;7.53;;;;;;;14.94;80.03;100677.13;2156403;81;20968;-88
2021/09/01 07:46:18;;;;;;;10.13;7.03;;;;;;;15.01;81.06;100676.23;2151233;81;21007;-89
2021/09/01 07:49:19;;;;;;;11.60;6.30;;;;;;;15.18;81.13;100672.06;2155438;81;20989;-88
2021/09/01 07:52:21;;;;;;;12.60;6.85;;;;;;;15.37;81.18;100685.38;2144005;81;20975;-89
2021/09/01 07:55:23;;;;;;;13.40;6.55;;;;;;;15.57;79.90;100676.28;2154845;81;21635;-86
2021/09/01 07:58:24;;;;;;;9.50;6.60;;;;;;;15.80;80.00;100683.73;2155597;81;21728;-87
2021/09/01 08:01:25;;;;;;;8.25;5.90;;;;;;;15.98;79.03;100687.33;2150000;80;21020;-88
2021/09/01 08:04:26;;;;;;;9.08;6.08;;;;;;;16.24;78.48;100688.12;2164460;81;21030;-88
2021/09/01 08:07:28;;;;;;;12.35;6.37;;;;;;;16.69;78.12;100687.94;2148420;81;21010;-88
2021/09/01 08:10:29;;;;;;;8.45;6.37;;;;;;;16.93;77.44;100684.05;2142275;81;20994;-88
2021/09/01 08:13:31;;;;;;;8.50;6.30;;;;;;;16.76;74.22;100691.52;2146218;81;21063;-89
2021/09/01 08:16:32;;;;;;;8.58;6.05;;;;;;;16.63;76.02;100695.41;2153011;81;21639;-87
2021/09/01 08:19:33;;;;;;;8.48;5.42;;;;;;;16.72;74.25;100699.09;2131459;82;21613;-88
2021/09/01 08:22:34;;;;;;;7.42;5.80;;;;;;;17.05;75.54;100697.23;2139796;81;20991;-88
2021/09/01 08:25:36;;;;;;;7.72;5.87;;;;;;;17.26;74.45;100704.41;2138910;82;21104;-87
2021/09/01 08:28:37;;;;;;;8.45;5.17;;;;;;;17.13;73.86;100702.45;2113171;82;21014;-87
2021/09/01 08:31:38;;;;;;;8.23;5.83;;;;;;;17.21;73.53;100707.66;2145478;81;20958;-88
2021/09/01 08:34:39;;;;;;;8.55;5.87;;;;;;;17.84;75.08;100709.48;2141260;81;21073;-88
2021/09/01 08:37:40;;;;;;;8.85;5.05;;;;;;;18.42;70.63;100714.43;2150457;81;20975;-89
2021/09/01 08:40:43;;;;;;;7.90;5.62;;;;;;;18.77;72.84;100717.27;2149258;81;20982;-87
2021/09/01 08:43:46;;;;;;;11.97;6.17;;;;;;;18.91;70.97;100716.77;2168823;80;21023;-87
2021/09/01 08:46:50;;;;;;;8.73;5.85;;;;;;;18.61;70.65;100721.66;2183005;79;21026;-87
2021/09/01 08:49:52;;;;;;;7.62;5.08;;;;;;;18.84;71.38;100719.98;2180971;79;21001;-88
2021/09/01 08:52:53;;;;;;;9.73;5.03;;;;;;;18.85;70.04;100714.09;2176884;80;21446;-86
2021/09/01 08:55:54;;;;;;;7.37;4.80;;;;;;;19.13;70.14;100718.72;2184923;79;20967;-86
2021/09/01 08:58:55;;;;;;;6.47;5.03;;;;;;;19.36;68.67;100722.84;2178627;79;20943;-89
2021/09/01 09:01:56;;;;;;;9.58;5.30;;;;;;;19.38;68.10;100724.80;2190129;79;21482;-88
2021/09/01 09:04:59;;;;;;;9.10;5.10;;;;;;;19.66;65.67;100721.34;2159687;80;21062;-88
2021/09/01 09:08:01;;;;;;;9.10;5.37;;;;;;;19.98;66.83;100713.34;2181973;79;21102;-88
2021/09/01 09:11:02;;;;;;;9.50;5.45;;;;;;;20.06;67.34;100723.05;2187733;79;21050;-87
2021/09/01 09:14:37;;;;;;;7.67;5.30;;;;;;;19.89;65.65;100720.84;2190565;79;21026;-88
2021/09/01 09:17:38;;;;;;;7.55;5.30;;;;;;;19.71;65.92;100720.72;2179216;79;20984;-87
2021/09/01 09:20:39;;;;;;;7.12;4.83;;;;;;;20.07;64.76;100722.83;2164157;80;20971;-88
2021/09/01 09:23:40;;;;;;;6.45;4.90;;;;;;;20.27;63.76;100720.55;2187957;79;21046;-87
2021/09/01 09:26:43;;;;;;;7.75;5.20;;;;;;;20.18;63.89;100725.89;2155524;80;20990;-88
2021/09/01 09:29:44;;;;;;;5.87;5.00;;;;;;;20.22;63.30;100721.75;2188432;79;21070;-87
2021/09/01 09:33:20;;;;;;;6.00;4.92;;;;;;;20.37;64.39;100727.66;2181814;79;20959;-89
2021/09/01 09:36:21;;;;;;;8.25;5.42;;;;;;;20.15;61.75;100729.31;2187328;80;21033;-88
2021/09/01 09:39:37;;;;;;;6.72;4.50;;;;;;;19.86;63.50;100721.80;2178078;80;21029;-87
2021/09/01 09:42:40;;;;;;;7.90;5.10;;;;;;;19.94;63.10;100718.87;2159016;80;21088;-88
2021/09/01 09:45:43;;;;;;;8.90;4.75;;;;;;;19.97;63.08;100726.52;2104780;82;20976;-89
2021/09/01 09:48:47;;;;;;;5.67;4.70;;;;;;;20.14;63.18;100733.06;2135483;82;21058;-88
2021/09/01 09:51:48;;;;;;;6.58;4.65;;;;;;;20.01;61.87;100731.77;2136981;81;21050;-88
2021/09/01 09:54:49;;;;;;;6.83;4.65;;;;;;;20.09;62.19;100736.09;2138576;81;21074;-88
2021/09/01 09:57:55;;;;;;;7.33;4.90;;;;;;;20.42;60.42;100735.92;2135289;81;21001;-86
2021/09/01 10:00:56;;;;;;;6.92;4.40;;;;;;;20.52;60.95;100737.60;2130238;81;21007;-85
2021/09/01 10:03:57;;;;;;;6.15;4.35;;;;;;;20.62;60.76;100741.75;2131690;82;21045;-85
2021/09/01 10:06:58;;;;;;;7.17;4.78;;;;;;;20.56;59.12;100742.91;2141062;81;21473;-85
2021/09/01 10:10:00;;;;;;;6.53;4.97;;;;;;;20.56;58.95;100737.52;2142883;82;21004;-85
2021/09/01 10:13:01;;;;;;;6.80;4.60;;;;;;;20.60;59.47;100740.08;2134695;82;21007;-85
2021/09/01 10:16:15;;;;;;;5.55;4.25;;;;;;;20.75;59.68;100734.89;2138684;81;20984;-86
2021/09/01 10:19:23;;;;;;;7.92;4.87;;;;;;;20.88;59.11;100734.80;2135167;82;21489;-86
2021/09/01 10:22:25;;;;;;;7.05;5.03;;;;;;;21.14;59.52;100736.97;2135948;81;21114;-85
2021/09/01 10:25:42;;;;;;;6.45;4.45;;;;;;;21.14;57.64;100739.66;2131377;82;22660;-85
2021/09/01 10:28:44;;;;;;;5.40;4.42;;;;;;;21.03;57.12;100739.36;2134817;82;21466;-86
2021/09/01 10:31:45;;;;;;;5.85;4.33;;;;;;;21.04;57.91;100744.22;2142050;81;21071;-85
2021/09/01 10:34:46;;;;;;;8.58;4.00;;;;;;;20.84;57.48;100732.25;2147410;81;21014;-85
2021/09/01 10:37:50;;;;;;;6.55;4.37;;;;;;;20.52;57.84;100734.91;2131291;82;21473;-85
2021/09/01 10:40:59;;;;;;;6.87;4.20;;;;;;;20.56;58.06;100728.09;2138131;82;21039;-85
2021/09/01 10:44:21;;;;;;;6.37;4.12;;;;;;;20.68;55.53;100736.83;2164246;80;21504;-85
2021/09/01 10:47:22;;;;;;;7.20;4.08;;;;;;;20.58;52.46;100735.45;2190079;80;20990;-85
2021/09/01 10:50:34;;;;;;;6.67;4.42;;;;;;;20.66;55.44;100738.91;2177123;80;20983;-85
2021/09/01 10:53:36;;;;;;;8.58;4.90;;;;;;;20.82;55.03;100739.20;2182982;79;21030;-85
2021/09/01 10:56:46;;;;;;;8.33;4.62;;;;;;;20.82;55.06;100739.20;2178984;80;21109;-85
2021/09/01 10:59:47;;;;;;;5.27;3.87;;;;;;;20.94;56.42;100729.87;2186707;79;21050;-85
2021/09/01 11:02:50;;;;;;;6.85;4.10;;;;;;;21.08;56.91;100744.60;2176503;79;21003;-85
2021/09/01 11:05:52;;;;;;;6.72;4.60;;;;;;;21.03;56.30;100736.66;2179593;79;21012;-85
2021/09/01 11:09:15;;;;;;;5.35;4.30;;;;;;;20.76;55.09;100741.95;2182821;79;20974;-85
2021/09/01 11:12:16;;;;;;;6.85;4.12;;;;;;;20.58;55.64;100744.88;2184985;80;20999;-85
2021/09/01 11:15:17;;;;;;;7.83;4.28;;;;;;;20.45;56.04;100751.66;2178848;80;21588;-85
2021/09/01 11:18:19;;;;;;;7.28;3.75;;;;;;;20.58;56.48;100752.97;2184980;79;21075;-85
2021/09/01 11:21:20;;;;;;;7.50;3.77;;;;;;;20.67;55.76;100758.10;2165316;80;20984;-85
2021/09/01 11:24:21;;;;;;;5.03;4.28;;;;;;;20.52;55.73;100765.09;2182298;79;20983;-85
2021/09/01 11:27:28;;;;;;;8.55;4.15;;;;;;;20.30;54.53;100769.97;2175876;80;20998;-85
2021/09/01 11:30:34;;;;;;;5.80;4.08;;;;;;;20.03;55.25;100770.10;2176321;79;21465;-86
2021/09/01 11:33:37;;;;;;;6.50;3.98;;;;;;;20.08;55.82;100773.52;2185990;79;21038;-85
2021/09/01 11:36:41;;;;;;;8.25;4.55;;;;;;;20.05;55.96;100769.90;2184119;79;21498;-86
2021/09/01 11:39:45;;;;;;;6.90;4.00;;;;;;;19.86;56.44;100786.42;2181000;79;21493;-85
2021/09/01 11:42:50;;;;;;;5.85;3.65;;;;;;;20.01;56.52;100781.59;2177985;79;21561;-86
2021/09/01 11:45:52;;;;;;;4.75;3.55;;;;;;;20.26;55.69;100778.19;2178362;79;21038;-86
2021/09/01 11:49:04;;;;;;;5.53;3.80;;;;;;;20.27;55.72;100774.44;2180798;79;21010;-86
2021/09/01 11:52:05;;;;;;;4.75;3.70;;;;;;;20.18;56.12;100779.78;2170084;79;21603;-86
2021/09/01 11:55:08;;;;;;;5.45;3.45;;;;;;;20.48;57.11;100781.41;2156644;79;21077;-87
2021/09/01 11:58:22;;;;;;;5.00;3.70;;;;;;;20.45;56.36;100783.19;2151587;80;20987;-87
2021/09/01 12:01:24;;;;;;;6.03;3.98;;;;;;;20.17;55.89;100788.91;2175284;79;21039;-86
2021/09/01 12:04:26;;;;;;;4.72;3.27;;;;;;;19.89;55.84;100787.34;2169893;80;20947;-86
2021/09/01 12:07:31;;;;;;;5.80;4.10;;;;;;;19.82;56.63;100784.69;2179180;80;21048;-86
2021/09/01 12:10:33;;;;;;;6.42;4.28;;;;;;;19.88;57.03;100781.66;2160324;80;21510;-85
2021/09/01 12:13:41;;;;;;;6.10;3.47;;;;;;;20.03;57.47;100785.44;2168679;79;21121;-86
2021/09/01 12:16:43;;;;;;;7.35;3.37;;;;;;;20.28;56.11;100777.47;2159050;80;21029;-86
2021/09/01 12:19:52;;;;;;;5.50;3.65;;;;;;;20.27;55.54;100779.34;2156788;80;21724;-85
2021/09/01 12:22:54;;;;;;;4.45;3.42;;;;;;;20.19;56.11;100778.73;2127175;81;21043;-86
2021/09/01 12:26:05;;;;;;;9.35;4.00;;;;;;;20.36;56.38;100782.61;2130256;81;21033;-86
2021/09/01 12:29:07;;;;;;;4.55;3.45;;;;;;;20.39;55.49;100778.14;2158475;80;20990;-86
2021/09/01 12:32:15;;;;;;;18.02;4.90;;;;;;;20.29;56.26;100783.14;2175390;79;21010;-85
2021/09/01 12:35:17;;;;;;;9.15;3.62;;;;;;;20.31;55.63;100774.34;2166721;79;20969;-86
2021/09/01 12:38:23;;;;;;;5.33;3.52;;;;;;;20.12;56.21;100786.84;2182160;80;21018;-86
2021/09/01 12:41:25;;;;;;;9.10;3.77;;;;;;;20.07;56.01;100782.09;2175909;79;21028;-86
2021/09/01 12:44:26;;;;;;;6.85;3.65;;;;;;;20.19;56.30;100779.58;2159688;79;21050;-85
2021/09/01 12:47:30;;;;;;;7.87;3.85;;;;;;;20.25;55.82;100777.37;2147990;81;21029;-86
2021/09/01 12:50:37;;;;;;;26.93;6.20;;;;;;;20.30;54.84;100776.21;2150766;80;20951;-86
2021/09/01 12:53:38;;;;;;;10.50;4.08;;;;;;;20.25;55.30;100780.59;2179266;79;21073;-86
2021/09/01 12:56:42;;;;;;;8.88;4.08;;;;;;;20.30;55.76;100784.79;2180473;80;20979;-86
2021/09/01 12:59:44;;;;;;;29.37;5.40;;;;;;;20.23;55.01;100787.52;2187058;80;21468;-85
2021/09/01 13:02:45;;;;;;;38.73;6.72;;;;;;;20.15;54.94;100791.28;2171619;80;20972;-86
2021/09/01 13:05:46;;;;;;;21.52;5.08;;;;;;;20.02;54.30;100798.09;2182619;79;21081;-86
2021/09/01 13:08:47;;;;;;;31.93;5.90;;;;;;;19.95;54.56;100796.44;2177892;79;21141;-85
2021/09/01 13:11:49;;;;;;;7.80;3.58;;;;;;;20.00;55.35;100802.03;2178802;79;20985;-85
2021/09/01 13:14:50;;;;;;;6.83;3.92;;;;;;;20.08;55.41;100803.97;2186724;79;20987;-85
2021/09/01 13:17:52;;;;;;;9.08;3.87;;;;;;;20.05;54.48;100809.78;2187689;78;21448;-86
2021/09/01 13:20:55;;;;;;;5.75;4.00;;;;;;;20.00;54.55;100802.03;2185370;79;21050;-86
2021/09/01 13:23:56;;;;;;;10.60;4.10;;;;;;;19.96;55.25;100804.30;2177237;80;20975;-86
2021/09/01 13:26:58;;;;;;;4.78;3.50;;;;;;;20.05;54.98;100806.27;2187583;79;21002;-86
2021/09/01 13:29:59;;;;;;;6.58;3.52;;;;;;;19.98;54.39;100803.58;2181269;80;21452;-86
2021/09/01 13:33:01;;;;;;;6.08;3.85;;;;;;;19.97;55.26;100796.55;2185001;79;21480;-87
2021/09/01 13:36:02;;;;;;;5.90;3.90;;;;;;;20.03;54.21;100797.03;2188359;79;20988;-86
2021/09/01 13:39:05;;;;;;;5.40;3.58;;;;;;;19.96;54.71;100799.44;2153088;80;21002;-86
2021/09/01 13:42:06;;;;;;;7.70;3.30;;;;;;;19.87;54.64;100794.80;2188236;80;21035;-86
2021/09/01 13:45:09;;;;;;;9.45;4.03;;;;;;;19.92;55.06;100782.36;2165046;80;21043;-86
2021/09/01 13:48:11;;;;;;;5.25;3.90;;;;;;;20.02;55.11;100791.84;2181273;79;20980;-85
2021/09/01 13:51:12;;;;;;;5.75;4.00;;;;;;;20.01;54.93;100792.38;2183033;79;21008;-85
2021/09/01 13:54:13;;;;;;;6.35;3.98;;;;;;;20.02;54.79;100793.19;2182643;79;20976;-84
2021/09/01 13:57:16;;;;;;;7.50;4.08;;;;;;;20.03;54.90;100790.83;2171355;80;21717;-86
2021/09/01 14:00:17;;;;;;;7.62;4.60;;;;;;;20.02;54.11;100795.39;2170769;80;21007;-85
2021/09/01 14:03:24;;;;;;;5.83;4.22;;;;;;;19.97;54.96;100793.85;2190835;78;21106;-84